sensor_id;sensor_type;location;lat;lon;timestamp;temperature;humidity
43995;DHT22;51687;52.160;5.298;2024-02-15T00:02:26;14.30;84.90
43995;DHT22;51687;52.160;5.298;2024-02-15T00:04:54;14.30;84.90
43995;DHT22;51687;52.160;5.298;2024-02-15T00:07:21;14.30;84.80
43995;DHT22;51687;52.160;5.298;2024-02-15T00:09:49;14.30;84.90
43995;DHT22;51687;52.160;5.298;2024-02-15T00:12:16;14.40;84.90
43995;DHT22;51687;52.160;5.298;2024-02-15T00:14:43;14.40;84.80
43995;DHT22;51687;52.160;5.298;2024-02-15T00:17:10;14.40;84.90
43995;DHT22;51687;52.160;5.298;2024-02-15T00:19:38;14.40;84.80
43995;DHT22;51687;52.160;5.298;2024-02-15T02:05:32;14.30;84.90
43995;DHT22;51687;52.160;5.298;2024-02-15T02:07:59;14.40;84.30
43995;DHT22;51687;52.160;5.298;2024-02-15T02:10:29;14.40;84.80
43995;DHT22;51687;52.160;5.298;2024-02-15T02:13:00;14.40;84.80
43995;DHT22;51687;52.160;5.298;2024-02-15T02:15:32;14.40;84.80
43995;DHT22;51687;52.160;5.298;2024-02-15T02:18:00;14.40;84.90
43995;DHT22;51687;52.160;5.298;2024-02-15T02:20:27;14.40;84.80
43995;DHT22;51687;52.160;5.298;2024-02-15T02:23:20;14.40;84.80
43995;DHT22;51687;52.160;5.298;2024-02-15T02:25:45;14.40;85.40
43995;DHT22;51687;52.160;5.298;2024-02-15T02:28:16;14.40;84.90
43995;DHT22;51687;52.160;5.298;2024-02-15T02:30:46;14.40;84.90
43995;DHT22;51687;52.160;5.298;2024-02-15T02:33:13;14.40;84.80
43995;DHT22;51687;52.160;5.298;2024-02-15T02:35:46;14.40;84.80
43995;DHT22;51687;52.160;5.298;2024-02-15T02:38:13;14.40;84.90
43995;DHT22;51687;52.160;5.298;2024-02-15T02:40:40;14.40;84.60
43995;DHT22;51687;52.160;5.298;2024-02-15T02:43:08;14.40;84.60
43995;DHT22;51687;52.160;5.298;2024-02-15T02:45:35;14.40;84.50
43995;DHT22;51687;52.160;5.298;2024-02-15T02:48:01;14.40;84.50
43995;DHT22;51687;52.160;5.298;2024-02-15T02:50:28;14.40;84.50
43995;DHT22;51687;52.160;5.298;2024-02-15T02:52:55;14.40;84.60
43995;DHT22;51687;52.160;5.298;2024-02-15T02:55:22;14.40;84.70
43995;DHT22;51687;52.160;5.298;2024-02-15T02:57:49;14.40;84.60
43995;DHT22;51687;52.160;5.298;2024-02-15T03:00:16;14.40;84.60
43995;DHT22;51687;52.160;5.298;2024-02-15T03:02:45;14.40;84.60
43995;DHT22;51687;52.160;5.298;2024-02-15T03:05:13;14.40;84.60
43995;DHT22;51687;52.160;5.298;2024-02-15T03:07:41;14.40;84.60
43995;DHT22;51687;52.160;5.298;2024-02-15T03:10:09;14.50;84.70
43995;DHT22;51687;52.160;5.298;2024-02-15T03:12:37;14.50;84.50
43995;DHT22;51687;52.160;5.298;2024-02-15T07:10:06;14.50;84.30
43995;DHT22;51687;52.160;5.298;2024-02-15T07:12:33;14.60;85.20
43995;DHT22;51687;52.160;5.298;2024-02-15T07:15:01;14.60;85.40
43995;DHT22;51687;52.160;5.298;2024-02-15T07:17:30;14.60;85.30
43995;DHT22;51687;52.160;5.298;2024-02-15T07:19:57;14.60;85.00
43995;DHT22;51687;52.160;5.298;2024-02-15T07:27:18;14.60;85.10
43995;DHT22;51687;52.160;5.298;2024-02-15T07:29:45;14.70;84.60
43995;DHT22;51687;52.160;5.298;2024-02-15T07:32:12;14.70;84.50
43995;DHT22;51687;52.160;5.298;2024-02-15T07:34:39;14.70;84.40
43995;DHT22;51687;52.160;5.298;2024-02-15T07:37:08;14.60;84.50
43995;DHT22;51687;52.160;5.298;2024-02-15T07:39:35;14.60;84.60
43995;DHT22;51687;52.160;5.298;2024-02-15T07:42:03;14.60;84.70
43995;DHT22;51687;52.160;5.298;2024-02-15T07:44:31;14.70;84.90
43995;DHT22;51687;52.160;5.298;2024-02-15T07:46:59;14.60;84.70
43995;DHT22;51687;52.160;5.298;2024-02-15T07:49:31;14.70;84.70
43995;DHT22;51687;52.160;5.298;2024-02-15T07:52:00;14.60;84.50
43995;DHT22;51687;52.160;5.298;2024-02-15T07:54:27;14.60;84.60
43995;DHT22;51687;52.160;5.298;2024-02-15T07:56:56;14.60;84.70
43995;DHT22;51687;52.160;5.298;2024-02-15T07:59:25;14.60;84.80
43995;DHT22;51687;52.160;5.298;2024-02-15T08:01:51;14.60;84.70
43995;DHT22;51687;52.160;5.298;2024-02-15T08:04:19;14.50;84.60
43995;DHT22;51687;52.160;5.298;2024-02-15T08:06:47;14.50;84.80
43995;DHT22;51687;52.160;5.298;2024-02-15T08:09:16;14.60;84.90
43995;DHT22;51687;52.160;5.298;2024-02-15T08:11:44;14.60;84.90
43995;DHT22;51687;52.160;5.298;2024-02-15T08:14:11;14.50;84.90
43995;DHT22;51687;52.160;5.298;2024-02-15T08:16:40;14.50;85.00
43995;DHT22;51687;52.160;5.298;2024-02-15T08:19:08;14.50;85.10
43995;DHT22;51687;52.160;5.298;2024-02-15T08:21:35;14.50;85.20
43995;DHT22;51687;52.160;5.298;2024-02-15T08:24:03;14.50;85.20
43995;DHT22;51687;52.160;5.298;2024-02-15T08:26:39;14.50;85.30
43995;DHT22;51687;52.160;5.298;2024-02-15T08:29:06;14.50;85.40
43995;DHT22;51687;52.160;5.298;2024-02-15T08:31:34;14.50;85.40
43995;DHT22;51687;52.160;5.298;2024-02-15T08:34:04;14.50;85.50
43995;DHT22;51687;52.160;5.298;2024-02-15T08:36:37;14.50;86.10
43995;DHT22;51687;52.160;5.298;2024-02-15T08:39:06;14.50;85.60
43995;DHT22;51687;52.160;5.298;2024-02-15T08:41:35;14.50;85.60
43995;DHT22;51687;52.160;5.298;2024-02-15T08:44:02;14.50;85.50
43995;DHT22;51687;52.160;5.298;2024-02-15T08:46:32;14.50;85.30
43995;DHT22;51687;52.160;5.298;2024-02-15T08:48:59;14.50;85.60
43995;DHT22;51687;52.160;5.298;2024-02-15T08:51:27;14.50;85.70
43995;DHT22;51687;52.160;5.298;2024-02-15T08:53:54;14.40;85.80
43995;DHT22;51687;52.160;5.298;2024-02-15T08:56:24;14.50;86.10
43995;DHT22;51687;52.160;5.298;2024-02-15T08:58:50;14.40;86.10
43995;DHT22;51687;52.160;5.298;2024-02-15T09:01:17;14.40;86.10
43995;DHT22;51687;52.160;5.298;2024-02-15T09:03:44;14.40;86.20
43995;DHT22;51687;52.160;5.298;2024-02-15T09:06:12;14.40;86.30
43995;DHT22;51687;52.160;5.298;2024-02-15T09:08:40;14.40;86.30
43995;DHT22;51687;52.160;5.298;2024-02-15T09:11:07;14.40;86.40
43995;DHT22;51687;52.160;5.298;2024-02-15T09:13:40;14.40;86.50
43995;DHT22;51687;52.160;5.298;2024-02-15T09:16:07;14.40;86.60
43995;DHT22;51687;52.160;5.298;2024-02-15T09:18:34;14.40;86.60
43995;DHT22;51687;52.160;5.298;2024-02-15T09:21:01;14.30;86.70
43995;DHT22;51687;52.160;5.298;2024-02-15T09:23:28;14.40;86.80
43995;DHT22;51687;52.160;5.298;2024-02-15T09:25:54;14.40;87.40
43995;DHT22;51687;52.160;5.298;2024-02-15T09:28:21;14.40;86.70
43995;DHT22;51687;52.160;5.298;2024-02-15T09:30:49;14.40;86.70
43995;DHT22;51687;52.160;5.298;2024-02-15T09:33:21;14.40;86.70
43995;DHT22;51687;52.160;5.298;2024-02-15T09:35:48;14.40;86.80
43995;DHT22;51687;52.160;5.298;2024-02-15T09:38:15;14.40;86.70
43995;DHT22;51687;52.160;5.298;2024-02-15T09:40:43;14.40;86.60
43995;DHT22;51687;52.160;5.298;2024-02-15T09:43:11;14.40;86.60
43995;DHT22;51687;52.160;5.298;2024-02-15T09:45:40;14.40;86.70
43995;DHT22;51687;52.160;5.298;2024-02-15T09:48:10;14.40;86.70
43995;DHT22;51687;52.160;5.298;2024-02-15T09:50:39;14.50;86.60
43995;DHT22;51687;52.160;5.298;2024-02-15T09:53:09;14.50;86.60
43995;DHT22;51687;52.160;5.298;2024-02-15T09:55:36;14.50;86.50
43995;DHT22;51687;52.160;5.298;2024-02-15T09:58:05;14.50;86.60
43995;DHT22;51687;52.160;5.298;2024-02-15T10:00:33;14.50;86.60
43995;DHT22;51687;52.160;5.298;2024-02-15T10:03:05;14.60;87.10
43995;DHT22;51687;52.160;5.298;2024-02-15T10:05:32;14.60;86.50
43995;DHT22;51687;52.160;5.298;2024-02-15T10:07:59;14.60;86.30
43995;DHT22;51687;52.160;5.298;2024-02-15T10:10:27;14.60;86.30
43995;DHT22;51687;52.160;5.298;2024-02-15T10:12:55;14.60;86.30
43995;DHT22;51687;52.160;5.298;2024-02-15T10:15:36;14.60;86.40
43995;DHT22;51687;52.160;5.298;2024-02-15T10:18:10;14.60;86.30
43995;DHT22;51687;52.160;5.298;2024-02-15T10:20:39;14.60;86.80
43995;DHT22;51687;52.160;5.298;2024-02-15T10:25:39;14.60;86.30
43995;DHT22;51687;52.160;5.298;2024-02-15T10:28:11;14.60;86.20
43995;DHT22;51687;52.160;5.298;2024-02-15T10:30:41;14.70;86.30
43995;DHT22;51687;52.160;5.298;2024-02-15T10:33:26;14.60;86.20
43995;DHT22;51687;52.160;5.298;2024-02-15T10:38:37;14.60;86.40
43995;DHT22;51687;52.160;5.298;2024-02-15T10:41:06;14.60;86.50
43995;DHT22;51687;52.160;5.298;2024-02-15T10:43:34;14.60;86.50
43995;DHT22;51687;52.160;5.298;2024-02-15T10:46:01;14.60;86.50
43995;DHT22;51687;52.160;5.298;2024-02-15T10:48:29;14.60;86.60
43995;DHT22;51687;52.160;5.298;2024-02-15T10:50:59;14.60;86.60
43995;DHT22;51687;52.160;5.298;2024-02-15T10:53:28;14.60;86.60
43995;DHT22;51687;52.160;5.298;2024-02-15T10:58:33;14.60;86.40
43995;DHT22;51687;52.160;5.298;2024-02-15T11:01:06;14.60;86.40
43995;DHT22;51687;52.160;5.298;2024-02-15T11:03:36;14.60;86.60
43995;DHT22;51687;52.160;5.298;2024-02-15T11:08:38;14.70;86.70
43995;DHT22;51687;52.160;5.298;2024-02-15T11:11:05;14.70;86.60
43995;DHT22;51687;52.160;5.298;2024-02-15T11:13:33;14.70;86.70
43995;DHT22;51687;52.160;5.298;2024-02-15T11:16:00;14.70;86.50
43995;DHT22;51687;52.160;5.298;2024-02-15T11:18:45;14.70;86.60
43995;DHT22;51687;52.160;5.298;2024-02-15T11:34:42;14.80;86.80
43995;DHT22;51687;52.160;5.298;2024-02-15T11:42:56;14.80;86.60
43995;DHT22;51687;52.160;5.298;2024-02-15T11:45:29;14.90;86.80
43995;DHT22;51687;52.160;5.298;2024-02-15T11:48:10;14.90;86.90
43995;DHT22;51687;52.160;5.298;2024-02-15T11:50:41;14.90;86.90
43995;DHT22;51687;52.160;5.298;2024-02-15T11:53:09;14.90;86.90
43995;DHT22;51687;52.160;5.298;2024-02-15T11:55:39;14.90;86.90
43995;DHT22;51687;52.160;5.298;2024-02-15T11:58:08;14.90;87.00
43995;DHT22;51687;52.160;5.298;2024-02-15T12:00:38;14.90;87.00
43995;DHT22;51687;52.160;5.298;2024-02-15T12:03:25;14.90;86.90
43995;DHT22;51687;52.160;5.298;2024-02-15T12:06:17;14.90;87.20
43995;DHT22;51687;52.160;5.298;2024-02-15T12:14:44;15.00;87.40
43995;DHT22;51687;52.160;5.298;2024-02-15T12:17:29;15.10;87.70
43995;DHT22;51687;52.160;5.298;2024-02-15T12:20:15;15.10;87.70
43995;DHT22;51687;52.160;5.298;2024-02-15T12:22:44;15.10;87.70
43995;DHT22;51687;52.160;5.298;2024-02-15T12:25:16;15.10;87.70
43995;DHT22;51687;52.160;5.298;2024-02-15T12:30:15;15.20;87.70
43995;DHT22;51687;52.160;5.298;2024-02-15T12:32:43;15.20;87.70
43995;DHT22;51687;52.160;5.298;2024-02-15T12:35:14;15.20;87.80
43995;DHT22;51687;52.160;5.298;2024-02-15T12:37:47;15.20;87.70
43995;DHT22;51687;52.160;5.298;2024-02-15T12:40:17;15.20;87.50
43995;DHT22;51687;52.160;5.298;2024-02-15T12:42:45;15.30;87.50
43995;DHT22;51687;52.160;5.298;2024-02-15T12:45:20;15.30;87.50
43995;DHT22;51687;52.160;5.298;2024-02-15T12:47:52;15.30;87.50
43995;DHT22;51687;52.160;5.298;2024-02-15T12:50:23;15.30;87.80
43995;DHT22;51687;52.160;5.298;2024-02-15T13:25:29;15.40;88.30
43995;DHT22;51687;52.160;5.298;2024-02-15T13:27:56;15.80;85.30
43995;DHT22;51687;52.160;5.298;2024-02-15T13:30:24;15.90;85.50
43995;DHT22;51687;52.160;5.298;2024-02-15T13:32:53;15.90;85.30
43995;DHT22;51687;52.160;5.298;2024-02-15T13:35:23;15.90;84.40
43995;DHT22;51687;52.160;5.298;2024-02-15T13:37:51;16.00;84.10
43995;DHT22;51687;52.160;5.298;2024-02-15T13:40:21;16.00;84.10
43995;DHT22;51687;52.160;5.298;2024-02-15T13:42:55;16.00;84.10
43995;DHT22;51687;52.160;5.298;2024-02-15T13:48:04;16.10;82.40
43995;DHT22;51687;52.160;5.298;2024-02-15T13:50:34;16.10;82.40
43995;DHT22;51687;52.160;5.298;2024-02-15T13:53:03;16.10;81.90
43995;DHT22;51687;52.160;5.298;2024-02-15T13:55:30;16.10;82.00
43995;DHT22;51687;52.160;5.298;2024-02-15T13:57:57;16.20;81.80
43995;DHT22;51687;52.160;5.298;2024-02-15T14:00:26;16.20;80.90
43995;DHT22;51687;52.160;5.298;2024-02-15T14:02:58;16.20;80.60
43995;DHT22;51687;52.160;5.298;2024-02-15T14:05:27;16.30;80.90
43995;DHT22;51687;52.160;5.298;2024-02-15T14:08:03;16.30;81.10
43995;DHT22;51687;52.160;5.298;2024-02-15T14:10:32;16.30;80.60
43995;DHT22;51687;52.160;5.298;2024-02-15T14:13:02;16.40;79.70
43995;DHT22;51687;52.160;5.298;2024-02-15T14:15:30;16.40;80.10
43995;DHT22;51687;52.160;5.298;2024-02-15T14:18:00;16.50;79.90
43995;DHT22;51687;52.160;5.298;2024-02-15T14:20:28;16.50;79.90
43995;DHT22;51687;52.160;5.298;2024-02-15T14:22:55;16.60;79.90
43995;DHT22;51687;52.160;5.298;2024-02-15T14:25:24;16.60;79.10
43995;DHT22;51687;52.160;5.298;2024-02-15T14:27:54;16.70;78.20
43995;DHT22;51687;52.160;5.298;2024-02-15T14:30:21;16.70;77.40
43995;DHT22;51687;52.160;5.298;2024-02-15T14:33:07;16.70;77.30
43995;DHT22;51687;52.160;5.298;2024-02-15T14:35:38;16.70;77.50
43995;DHT22;51687;52.160;5.298;2024-02-15T14:38:10;16.70;77.40
43995;DHT22;51687;52.160;5.298;2024-02-15T14:40:40;16.70;77.50
43995;DHT22;51687;52.160;5.298;2024-02-15T14:43:11;16.80;77.70
43995;DHT22;51687;52.160;5.298;2024-02-15T14:45:46;16.80;77.50
43995;DHT22;51687;52.160;5.298;2024-02-15T14:48:14;16.80;76.90
43995;DHT22;51687;52.160;5.298;2024-02-15T14:50:44;16.80;77.10
43995;DHT22;51687;52.160;5.298;2024-02-15T14:53:12;16.90;77.60
43995;DHT22;51687;52.160;5.298;2024-02-15T14:55:42;16.90;77.70
43995;DHT22;51687;52.160;5.298;2024-02-15T14:58:16;16.90;77.60
43995;DHT22;51687;52.160;5.298;2024-02-15T15:00:44;17.00;77.00
43995;DHT22;51687;52.160;5.298;2024-02-15T15:03:13;17.00;76.70
43995;DHT22;51687;52.160;5.298;2024-02-15T15:05:44;17.00;76.40
43995;DHT22;51687;52.160;5.298;2024-02-15T15:08:31;17.00;76.40
43995;DHT22;51687;52.160;5.298;2024-02-15T15:11:17;17.00;76.40
43995;DHT22;51687;52.160;5.298;2024-02-15T15:14:03;17.00;76.50
43995;DHT22;51687;52.160;5.298;2024-02-15T15:16:31;17.00;76.90
43995;DHT22;51687;52.160;5.298;2024-02-15T15:18:58;17.00;76.50
43995;DHT22;51687;52.160;5.298;2024-02-15T15:21:25;17.00;75.90
43995;DHT22;51687;52.160;5.298;2024-02-15T15:23:55;17.10;75.80
43995;DHT22;51687;52.160;5.298;2024-02-15T15:26:22;17.00;76.30
43995;DHT22;51687;52.160;5.298;2024-02-15T15:28:49;17.00;75.70
43995;DHT22;51687;52.160;5.298;2024-02-15T15:31:18;17.00;76.00
43995;DHT22;51687;52.160;5.298;2024-02-15T15:33:48;17.00;76.10
43995;DHT22;51687;52.160;5.298;2024-02-15T15:36:16;17.00;76.20
43995;DHT22;51687;52.160;5.298;2024-02-15T15:38:46;17.00;75.90
43995;DHT22;51687;52.160;5.298;2024-02-15T15:41:13;17.00;75.60
43995;DHT22;51687;52.160;5.298;2024-02-15T15:43:39;17.00;75.20
43995;DHT22;51687;52.160;5.298;2024-02-15T15:46:13;17.00;74.90
43995;DHT22;51687;52.160;5.298;2024-02-15T15:48:40;17.00;75.10
43995;DHT22;51687;52.160;5.298;2024-02-15T15:51:07;17.00;75.50
43995;DHT22;51687;52.160;5.298;2024-02-15T15:53:37;17.00;75.80
43995;DHT22;51687;52.160;5.298;2024-02-15T15:56:12;17.00;75.80
43995;DHT22;51687;52.160;5.298;2024-02-15T15:58:39;17.00;75.20
43995;DHT22;51687;52.160;5.298;2024-02-15T16:01:10;17.00;75.50
43995;DHT22;51687;52.160;5.298;2024-02-15T16:03:37;17.00;75.60
43995;DHT22;51687;52.160;5.298;2024-02-15T16:06:06;17.00;75.30
43995;DHT22;51687;52.160;5.298;2024-02-15T16:08:35;17.00;75.00
43995;DHT22;51687;52.160;5.298;2024-02-15T16:11:01;17.00;74.90
43995;DHT22;51687;52.160;5.298;2024-02-15T16:13:28;17.00;75.10
43995;DHT22;51687;52.160;5.298;2024-02-15T16:15:57;17.00;75.10
43995;DHT22;51687;52.160;5.298;2024-02-15T16:18:24;17.00;75.30
43995;DHT22;51687;52.160;5.298;2024-02-15T16:20:51;17.00;75.10
43995;DHT22;51687;52.160;5.298;2024-02-15T16:23:21;17.00;75.20
43995;DHT22;51687;52.160;5.298;2024-02-15T16:25:49;17.00;75.30
43995;DHT22;51687;52.160;5.298;2024-02-15T16:28:17;17.00;75.10
43995;DHT22;51687;52.160;5.298;2024-02-15T16:30:44;17.00;75.20
43995;DHT22;51687;52.160;5.298;2024-02-15T16:33:11;17.00;75.40
43995;DHT22;51687;52.160;5.298;2024-02-15T16:35:40;17.00;75.40
43995;DHT22;51687;52.160;5.298;2024-02-15T16:38:07;17.00;75.50
43995;DHT22;51687;52.160;5.298;2024-02-15T16:40:35;17.00;75.50
43995;DHT22;51687;52.160;5.298;2024-02-15T16:43:02;17.00;76.10
43995;DHT22;51687;52.160;5.298;2024-02-15T16:45:31;17.00;75.30
43995;DHT22;51687;52.160;5.298;2024-02-15T16:48:00;17.00;75.30
43995;DHT22;51687;52.160;5.298;2024-02-15T16:50:29;17.00;75.50
43995;DHT22;51687;52.160;5.298;2024-02-15T16:52:56;16.90;75.00
43995;DHT22;51687;52.160;5.298;2024-02-15T16:55:23;16.90;74.90
43995;DHT22;51687;52.160;5.298;2024-02-15T16:57:56;16.90;74.90
43995;DHT22;51687;52.160;5.298;2024-02-15T17:00:29;16.90;74.70
43995;DHT22;51687;52.160;5.298;2024-02-15T17:02:57;16.90;74.80
43995;DHT22;51687;52.160;5.298;2024-02-15T17:05:24;16.90;75.00
43995;DHT22;51687;52.160;5.298;2024-02-15T17:07:51;16.80;74.90
43995;DHT22;51687;52.160;5.298;2024-02-15T17:10:17;16.80;75.40
43995;DHT22;51687;52.160;5.298;2024-02-15T17:12:45;16.80;74.80
43995;DHT22;51687;52.160;5.298;2024-02-15T17:15:13;16.80;74.70
43995;DHT22;51687;52.160;5.298;2024-02-15T17:17:40;16.80;74.50
43995;DHT22;51687;52.160;5.298;2024-02-15T17:20:07;16.80;74.20
43995;DHT22;51687;52.160;5.298;2024-02-15T17:22:42;16.60;74.00
43995;DHT22;51687;52.160;5.298;2024-02-15T17:25:09;16.50;74.40
43995;DHT22;51687;52.160;5.298;2024-02-15T17:27:39;16.40;75.20
43995;DHT22;51687;52.160;5.298;2024-02-15T17:30:11;16.20;75.30
43995;DHT22;51687;52.160;5.298;2024-02-15T17:32:38;16.10;75.60
43995;DHT22;51687;52.160;5.298;2024-02-15T17:35:08;16.00;76.20
43995;DHT22;51687;52.160;5.298;2024-02-15T17:37:41;16.00;76.30
43995;DHT22;51687;52.160;5.298;2024-02-15T17:40:09;16.10;75.90
43995;DHT22;51687;52.160;5.298;2024-02-15T17:42:41;16.10;75.60
43995;DHT22;51687;52.160;5.298;2024-02-15T17:45:10;16.20;75.20
43995;DHT22;51687;52.160;5.298;2024-02-15T17:47:41;16.20;75.00
43995;DHT22;51687;52.160;5.298;2024-02-15T17:50:09;16.30;74.80
43995;DHT22;51687;52.160;5.298;2024-02-15T17:52:38;16.30;75.30
43995;DHT22;51687;52.160;5.298;2024-02-15T17:55:05;16.30;74.40
43995;DHT22;51687;52.160;5.298;2024-02-15T17:57:36;16.40;74.20
43995;DHT22;51687;52.160;5.298;2024-02-15T18:00:05;16.40;73.80
43995;DHT22;51687;52.160;5.298;2024-02-15T18:02:33;16.40;73.60
43995;DHT22;51687;52.160;5.298;2024-02-15T18:05:02;16.40;73.50
43995;DHT22;51687;52.160;5.298;2024-02-15T18:07:34;16.40;73.50
43995;DHT22;51687;52.160;5.298;2024-02-15T18:10:01;16.40;73.30
43995;DHT22;51687;52.160;5.298;2024-02-15T18:12:31;16.40;73.30
43995;DHT22;51687;52.160;5.298;2024-02-15T18:14:58;16.40;73.60
43995;DHT22;51687;52.160;5.298;2024-02-15T18:17:25;16.40;73.10
43995;DHT22;51687;52.160;5.298;2024-02-15T18:19:53;16.40;72.80
43995;DHT22;51687;52.160;5.298;2024-02-15T18:22:20;16.30;72.70
43995;DHT22;51687;52.160;5.298;2024-02-15T18:24:47;16.30;72.60
43995;DHT22;51687;52.160;5.298;2024-02-15T18:27:14;16.30;72.70
43995;DHT22;51687;52.160;5.298;2024-02-15T18:29:45;16.30;72.60
43995;DHT22;51687;52.160;5.298;2024-02-15T18:32:12;16.30;72.80
43995;DHT22;51687;52.160;5.298;2024-02-15T18:34:40;16.20;72.90
43995;DHT22;51687;52.160;5.298;2024-02-15T18:37:09;16.20;72.70
43995;DHT22;51687;52.160;5.298;2024-02-15T18:39:37;16.20;72.40
43995;DHT22;51687;52.160;5.298;2024-02-15T18:42:04;16.20;72.40
43995;DHT22;51687;52.160;5.298;2024-02-15T18:44:33;16.20;72.60
43995;DHT22;51687;52.160;5.298;2024-02-15T18:47:00;16.10;72.30
43995;DHT22;51687;52.160;5.298;2024-02-15T18:49:26;16.10;71.90
43995;DHT22;51687;52.160;5.298;2024-02-15T18:52:02;16.10;71.90
43995;DHT22;51687;52.160;5.298;2024-02-15T18:54:29;16.10;71.50
43995;DHT22;51687;52.160;5.298;2024-02-15T18:56:57;16.10;71.40
43995;DHT22;51687;52.160;5.298;2024-02-15T18:59:24;16.10;71.10
43995;DHT22;51687;52.160;5.298;2024-02-15T19:01:51;16.10;70.90
43995;DHT22;51687;52.160;5.298;2024-02-15T19:04:18;16.10;71.00
43995;DHT22;51687;52.160;5.298;2024-02-15T19:06:45;16.10;71.20
43995;DHT22;51687;52.160;5.298;2024-02-15T19:09:12;16.10;71.00
43995;DHT22;51687;52.160;5.298;2024-02-15T19:11:39;16.10;70.90
43995;DHT22;51687;52.160;5.298;2024-02-15T19:14:06;16.10;70.80
43995;DHT22;51687;52.160;5.298;2024-02-15T19:16:36;16.10;70.70
43995;DHT22;51687;52.160;5.298;2024-02-15T19:19:05;16.10;70.50
43995;DHT22;51687;52.160;5.298;2024-02-15T19:21:36;16.10;70.50
43995;DHT22;51687;52.160;5.298;2024-02-15T19:24:07;16.10;70.70
43995;DHT22;51687;52.160;5.298;2024-02-15T19:26:35;16.00;70.70
43995;DHT22;51687;52.160;5.298;2024-02-15T19:29:07;16.00;70.80
43995;DHT22;51687;52.160;5.298;2024-02-15T19:31:34;16.00;71.00
43995;DHT22;51687;52.160;5.298;2024-02-15T19:34:07;16.00;70.80
43995;DHT22;51687;52.160;5.298;2024-02-15T19:36:35;16.00;70.70
43995;DHT22;51687;52.160;5.298;2024-02-15T19:39:06;16.00;70.80
43995;DHT22;51687;52.160;5.298;2024-02-15T19:41:40;16.00;71.10
43995;DHT22;51687;52.160;5.298;2024-02-15T19:44:07;16.00;71.20
43995;DHT22;51687;52.160;5.298;2024-02-15T19:46:35;16.00;71.30
43995;DHT22;51687;52.160;5.298;2024-02-15T19:49:10;16.00;70.90
43995;DHT22;51687;52.160;5.298;2024-02-15T19:51:37;16.00;70.80
43995;DHT22;51687;52.160;5.298;2024-02-15T19:54:04;16.00;70.90
43995;DHT22;51687;52.160;5.298;2024-02-15T19:56:31;16.00;71.00
43995;DHT22;51687;52.160;5.298;2024-02-15T19:59:01;16.00;70.90
43995;DHT22;51687;52.160;5.298;2024-02-15T20:01:28;16.00;70.70
43995;DHT22;51687;52.160;5.298;2024-02-15T20:03:55;16.00;70.70
43995;DHT22;51687;52.160;5.298;2024-02-15T20:06:23;16.00;70.70
43995;DHT22;51687;52.160;5.298;2024-02-15T20:08:51;15.90;70.80
43995;DHT22;51687;52.160;5.298;2024-02-15T20:11:18;15.90;70.70
43995;DHT22;51687;52.160;5.298;2024-02-15T20:13:45;15.90;70.90
43995;DHT22;51687;52.160;5.298;2024-02-15T20:16:13;15.90;70.90
43995;DHT22;51687;52.160;5.298;2024-02-15T20:18:40;16.00;70.50
43995;DHT22;51687;52.160;5.298;2024-02-15T20:21:07;15.90;70.40
43995;DHT22;51687;52.160;5.298;2024-02-15T20:23:41;15.90;70.30
43995;DHT22;51687;52.160;5.298;2024-02-15T20:26:09;15.90;70.20
43995;DHT22;51687;52.160;5.298;2024-02-15T20:28:36;15.90;70.10
43995;DHT22;51687;52.160;5.298;2024-02-15T20:31:03;15.90;70.50
43995;DHT22;51687;52.160;5.298;2024-02-15T20:33:34;15.90;70.10
43995;DHT22;51687;52.160;5.298;2024-02-15T20:36:01;15.90;69.90
43995;DHT22;51687;52.160;5.298;2024-02-15T20:38:29;15.90;69.80
43995;DHT22;51687;52.160;5.298;2024-02-15T20:40:56;15.90;69.60
43995;DHT22;51687;52.160;5.298;2024-02-15T20:43:29;15.90;69.50
43995;DHT22;51687;52.160;5.298;2024-02-15T20:45:56;15.80;69.00
43995;DHT22;51687;52.160;5.298;2024-02-15T20:48:23;15.80;68.70
43995;DHT22;51687;52.160;5.298;2024-02-15T20:50:50;15.70;68.50
43995;DHT22;51687;52.160;5.298;2024-02-15T20:53:19;15.70;68.70
43995;DHT22;51687;52.160;5.298;2024-02-15T20:55:46;15.70;68.40
43995;DHT22;51687;52.160;5.298;2024-02-15T20:58:13;15.70;68.60
43995;DHT22;51687;52.160;5.298;2024-02-15T21:00:40;15.70;68.30
43995;DHT22;51687;52.160;5.298;2024-02-15T21:03:09;15.70;68.10
43995;DHT22;51687;52.160;5.298;2024-02-15T21:05:35;15.70;68.30
43995;DHT22;51687;52.160;5.298;2024-02-15T21:08:05;15.70;68.30
43995;DHT22;51687;52.160;5.298;2024-02-15T21:10:32;15.70;68.20
43995;DHT22;51687;52.160;5.298;2024-02-15T21:12:59;15.70;68.10
43995;DHT22;51687;52.160;5.298;2024-02-15T21:15:27;15.70;68.00
43995;DHT22;51687;52.160;5.298;2024-02-15T21:17:54;15.70;68.00
43995;DHT22;51687;52.160;5.298;2024-02-15T21:20:21;15.70;67.90
43995;DHT22;51687;52.160;5.298;2024-02-15T21:22:48;15.70;67.70
43995;DHT22;51687;52.160;5.298;2024-02-15T21:25:16;15.70;67.60
43995;DHT22;51687;52.160;5.298;2024-02-15T21:27:43;15.70;68.20
43995;DHT22;51687;52.160;5.298;2024-02-15T21:30:10;15.70;67.80
43995;DHT22;51687;52.160;5.298;2024-02-15T21:32:39;15.70;67.90
43995;DHT22;51687;52.160;5.298;2024-02-15T21:35:07;15.60;67.50
43995;DHT22;51687;52.160;5.298;2024-02-15T21:37:34;15.60;67.50
43995;DHT22;51687;52.160;5.298;2024-02-15T21:40:02;15.60;67.40
43995;DHT22;51687;52.160;5.298;2024-02-15T21:42:32;15.60;67.40
43995;DHT22;51687;52.160;5.298;2024-02-15T21:45:00;15.50;67.90
43995;DHT22;51687;52.160;5.298;2024-02-15T21:47:27;15.50;67.60
43995;DHT22;51687;52.160;5.298;2024-02-15T21:49:54;15.50;67.30
43995;DHT22;51687;52.160;5.298;2024-02-15T21:52:21;15.50;67.00
43995;DHT22;51687;52.160;5.298;2024-02-15T21:54:48;15.50;66.80
43995;DHT22;51687;52.160;5.298;2024-02-15T21:57:15;15.50;67.00
43995;DHT22;51687;52.160;5.298;2024-02-15T21:59:42;15.50;67.20
43995;DHT22;51687;52.160;5.298;2024-02-15T22:02:09;15.40;67.50
43995;DHT22;51687;52.160;5.298;2024-02-15T22:04:38;15.40;67.30
43995;DHT22;51687;52.160;5.298;2024-02-15T22:07:05;15.40;67.70
43995;DHT22;51687;52.160;5.298;2024-02-15T22:09:34;15.40;67.30
43995;DHT22;51687;52.160;5.298;2024-02-15T22:12:05;15.40;67.20
43995;DHT22;51687;52.160;5.298;2024-02-15T22:14:33;15.40;67.40
43995;DHT22;51687;52.160;5.298;2024-02-15T22:17:00;15.40;67.60
43995;DHT22;51687;52.160;5.298;2024-02-15T22:19:27;15.40;67.80
43995;DHT22;51687;52.160;5.298;2024-02-15T22:21:54;15.40;67.60
43995;DHT22;51687;52.160;5.298;2024-02-15T22:24:21;15.40;67.30
43995;DHT22;51687;52.160;5.298;2024-02-15T22:26:50;15.40;67.20
43995;DHT22;51687;52.160;5.298;2024-02-15T22:29:18;15.40;67.40
43995;DHT22;51687;52.160;5.298;2024-02-15T22:31:44;15.40;67.40
43995;DHT22;51687;52.160;5.298;2024-02-15T22:34:11;15.40;67.70
43995;DHT22;51687;52.160;5.298;2024-02-15T22:36:41;15.40;67.60
43995;DHT22;51687;52.160;5.298;2024-02-15T22:39:08;15.40;67.40